Time;durP1;ratioP1;P1;durP2;ratioP2;P2;SDS_P1;SDS_P2;PMS_P1;PMS_P2;Temp;Humidity;BMP_temperature;BMP_pressure;BME280_temperature;BME280_humidity;BME280_pressure;Samples;Min_cycle;Max_cycle;Signal;HPM_P1;HPM_P2
2023/08/05 00:00:27;;;;;;;16.92;11.02;;;24.50;99.90;;;;;;5287203;28;20028;-77
2023/08/05 00:02:58;;;;;;;16.67;11.18;;;24.50;99.90;;;;;;5288754;28;20076;-74
2023/08/05 00:05:29;;;;;;;18.10;10.90;;;24.50;99.90;;;;;;5288472;28;20364;-75
2023/08/05 00:08:00;;;;;;;16.02;10.50;;;24.40;99.90;;;;;;5288374;28;20028;-77
2023/08/05 00:10:31;;;;;;;17.55;10.80;;;24.50;99.90;;;;;;5288288;28;20600;-77
2023/08/05 00:13:02;;;;;;;22.15;11.38;;;24.40;99.90;;;;;;5288542;28;20063;-75
2023/08/05 00:15:32;;;;;;;15.77;10.73;;;24.50;99.90;;;;;;5288066;28;20040;-76
2023/08/05 00:18:03;;;;;;;15.38;10.43;;;24.50;99.90;;;;;;5288181;28;20028;-73
2023/08/05 00:20:34;;;;;;;17.70;11.15;;;24.50;99.90;;;;;;5287587;28;20101;-77
2023/08/05 00:23:05;;;;;;;15.38;11.25;;;24.40;99.90;;;;;;5286256;28;20031;-77
2023/08/05 00:25:36;;;;;;;17.70;11.55;;;24.50;99.90;;;;;;5287639;28;20024;-74
2023/08/05 00:28:10;;;;;;;18.33;11.85;;;24.40;99.90;;;;;;5287339;28;20047;-77
2023/08/05 00:30:40;;;;;;;19.58;10.98;;;24.40;99.90;;;;;;5289737;28;20020;-75
2023/08/05 00:33:11;;;;;;;17.20;11.15;;;24.50;99.90;;;;;;5291099;28;20031;-75
2023/08/05 00:35:42;;;;;;;12.13;10.55;;;24.40;99.90;;;;;;5291793;28;20055;-75
2023/08/05 00:38:13;;;;;;;19.90;11.38;;;24.40;99.90;;;;;;5292014;28;20042;-76
2023/08/05 00:40:44;;;;;;;16.40;9.82;;;24.40;99.90;;;;;;5291878;28;20457;-74
2023/08/05 00:43:16;;;;;;;16.20;10.80;;;24.50;99.90;;;;;;5292077;28;20047;-76
2023/08/05 00:45:47;;;;;;;16.48;10.57;;;24.50;99.90;;;;;;5291894;27;20490;-74
2023/08/05 00:48:18;;;;;;;18.75;10.55;;;24.50;99.90;;;;;;5291913;28;20063;-73
2023/08/05 00:50:49;;;;;;;13.93;9.70;;;24.40;99.90;;;;;;5291959;28;20129;-77
2023/08/05 00:53:23;;;;;;;17.77;11.32;;;24.50;99.90;;;;;;5290440;28;20119;-74
2023/08/05 00:55:54;;;;;;;18.20;10.45;;;24.40;99.90;;;;;;5291889;28;20109;-75
2023/08/05 00:58:26;;;;;;;19.27;11.40;;;24.40;99.90;;;;;;5291557;28;20016;-77
2023/08/05 01:00:57;;;;;;;17.52;9.52;;;24.30;99.90;;;;;;5289973;28;20059;-76
2023/08/05 01:03:28;;;;;;;15.43;9.98;;;24.20;99.90;;;;;;5291649;28;20035;-78
2023/08/05 01:05:59;;;;;;;15.95;10.27;;;24.40;99.90;;;;;;5290356;28;20502;-77
2023/08/05 01:08:31;;;;;;;16.10;9.75;;;24.40;99.90;;;;;;5289816;28;20028;-74
2023/08/05 01:11:02;;;;;;;17.50;10.02;;;24.40;99.90;;;;;;5291245;28;20466;-77
2023/08/05 01:13:34;;;;;;;18.10;10.70;;;24.40;99.90;;;;;;5289726;28;20023;-73
2023/08/05 01:16:05;;;;;;;16.95;10.32;;;24.40;99.90;;;;;;5288643;28;20040;-73
2023/08/05 01:18:38;;;;;;;16.80;10.13;;;24.40;99.90;;;;;;5290204;28;20036;-76
2023/08/05 01:21:24;;;;;;;19.67;10.68;;;24.30;99.90;;;;;;5290532;28;20023;-77
2023/08/05 01:24:21;;;;;;;24.33;11.77;;;24.20;99.90;;;;;;5290750;28;20085;-77
2023/08/05 01:26:59;;;;;;;19.00;10.48;;;24.30;99.90;;;;;;5286695;28;20049;-77
2023/08/05 01:29:30;;;;;;;19.25;10.65;;;24.30;99.90;;;;;;5291071;28;20119;-75
2023/08/05 01:32:02;;;;;;;18.10;10.82;;;24.30;99.90;;;;;;5290913;28;20401;-76
2023/08/05 01:34:33;;;;;;;17.05;10.68;;;24.40;99.90;;;;;;5290635;28;20030;-74
2023/08/05 01:37:04;;;;;;;15.95;11.60;;;24.30;99.90;;;;;;5290586;28;20471;-73
2023/08/05 01:39:34;;;;;;;16.38;10.50;;;24.30;99.90;;;;;;5290913;28;20459;-74
2023/08/05 01:42:06;;;;;;;20.13;10.65;;;24.40;99.90;;;;;;5289357;28;20035;-76
2023/08/05 01:44:36;;;;;;;18.30;10.73;;;24.30;99.90;;;;;;5290670;28;20031;-76
2023/08/05 01:47:07;;;;;;;23.08;11.75;;;24.40;99.90;;;;;;5290814;28;20042;-73
2023/08/05 01:49:38;;;;;;;17.73;11.65;;;24.30;99.90;;;;;;5289577;28;20031;-74
2023/08/05 01:52:09;;;;;;;16.23;12.38;;;24.20;99.90;;;;;;5279362;28;20072;-74
2023/08/05 01:54:40;;;;;;;19.38;13.30;;;24.20;99.90;;;;;;5290039;28;20556;-73
2023/08/05 01:57:12;;;;;;;16.90;11.93;;;24.20;99.90;;;;;;5289280;28;20071;-76
2023/08/05 01:59:48;;;;;;;18.02;13.05;;;24.30;99.90;;;;;;5288578;28;20023;-77
2023/08/05 02:02:29;;;;;;;21.25;13.05;;;24.30;99.90;;;;;;5290705;28;20027;-77
2023/08/05 02:05:07;;;;;;;20.83;11.57;;;24.30;99.90;;;;;;5288801;28;20715;-74
2023/08/05 02:07:39;;;;;;;17.38;11.95;;;24.20;99.90;;;;;;5288912;28;20040;-78
2023/08/05 02:10:12;;;;;;;20.38;11.95;;;24.20;99.90;;;;;;5290187;28;20057;-76
2023/08/05 02:12:43;;;;;;;15.98;11.85;;;24.20;99.90;;;;;;5289105;28;20024;-77
2023/08/05 02:15:14;;;;;;;15.20;10.98;;;24.20;99.90;;;;;;5289328;28;20039;-76
2023/08/05 02:17:45;;;;;;;18.88;11.48;;;24.20;99.90;;;;;;5289146;28;20032;-77
2023/08/05 02:20:16;;;;;;;18.20;11.15;;;24.20;99.90;;;;;;5288796;28;20031;-76
2023/08/05 02:22:46;;;;;;;20.13;10.60;;;24.20;99.90;;;;;;5288961;28;20043;-76
2023/08/05 02:25:17;;;;;;;17.15;10.20;;;24.20;99.90;;;;;;5288921;28;20039;-76
2023/08/05 02:27:48;;;;;;;16.65;11.02;;;24.20;99.90;;;;;;5289631;28;20031;-76
2023/08/05 02:30:19;;;;;;;15.05;10.38;;;24.20;99.90;;;;;;5288470;28;20036;-74
2023/08/05 02:32:53;;;;;;;14.52;10.38;;;24.20;99.90;;;;;;5289879;28;20496;-77
2023/08/05 02:35:24;;;;;;;14.88;10.65;;;24.10;99.90;;;;;;5288622;28;20038;-77
2023/08/05 02:37:59;;;;;;;17.13;10.65;;;24.10;99.90;;;;;;5285180;28;20035;-77
2023/08/05 02:40:33;;;;;;;13.00;9.95;;;24.10;99.90;;;;;;5289658;28;20031;-76
2023/08/05 02:43:04;;;;;;;12.93;10.30;;;24.10;99.90;;;;;;5289508;28;20031;-76
2023/08/05 02:45:35;;;;;;;18.40;10.70;;;24.10;99.90;;;;;;5289569;28;20023;-76
2023/08/05 02:48:06;;;;;;;12.27;9.55;;;24.10;99.90;;;;;;5289677;28;20532;-73
2023/08/05 02:50:36;;;;;;;16.13;9.98;;;24.00;99.90;;;;;;5289423;28;20120;-74
2023/08/05 02:53:07;;;;;;;17.80;9.40;;;24.10;99.90;;;;;;5288670;28;20023;-74
2023/08/05 02:55:38;;;;;;;12.88;8.80;;;24.10;99.90;;;;;;5289198;28;20036;-74
2023/08/05 02:58:09;;;;;;;17.45;11.10;;;24.10;99.90;;;;;;5289295;28;20423;-76
2023/08/05 03:00:40;;;;;;;12.07;9.77;;;24.10;99.90;;;;;;5282898;28;20364;-74
2023/08/05 03:03:11;;;;;;;12.57;9.55;;;24.20;99.90;;;;;;5289295;28;20106;-75
2023/08/05 03:05:42;;;;;;;15.25;10.18;;;24.10;99.90;;;;;;5289045;28;20571;-74
2023/08/05 03:08:13;;;;;;;13.85;9.85;;;24.10;99.90;;;;;;5288404;28;20066;-75
2023/08/05 03:10:44;;;;;;;17.00;10.57;;;24.10;99.90;;;;;;5288142;28;20059;-73
2023/08/05 03:13:15;;;;;;;15.48;9.45;;;24.10;99.90;;;;;;5288509;28;20032;-74
2023/08/05 03:15:46;;;;;;;17.13;11.63;;;24.10;99.90;;;;;;5288356;28;20046;-77
2023/08/05 03:18:16;;;;;;;15.18;10.43;;;24.00;99.90;;;;;;5288116;28;20391;-76
2023/08/05 03:20:48;;;;;;;15.73;10.38;;;24.00;99.90;;;;;;5288358;28;20016;-74
2023/08/05 03:23:18;;;;;;;20.65;11.48;;;24.10;99.90;;;;;;5289190;28;20036;-77
2023/08/05 03:25:49;;;;;;;14.85;11.00;;;24.10;99.90;;;;;;5289377;28;20404;-74
2023/08/05 03:28:20;;;;;;;12.70;10.50;;;24.10;99.90;;;;;;5289348;28;20031;-75
2023/08/05 03:43:49;;;;;;;16.13;10.75;;;24.20;99.90;;;;;;5284158;27;21028;-79
2023/08/05 03:46:20;;;;;;;19.50;11.57;;;24.30;99.90;;;;;;5265806;28;20024;-77
2023/08/05 03:48:51;;;;;;;16.58;11.27;;;24.30;99.90;;;;;;5264944;28;20413;-78
2023/08/05 03:51:21;;;;;;;15.52;10.35;;;24.40;99.90;;;;;;5264883;28;20394;-79
2023/08/05 03:53:52;;;;;;;14.35;9.88;;;24.40;99.90;;;;;;5264846;28;20089;-79
2023/08/05 03:56:26;;;;;;;16.88;9.38;;;24.40;99.90;;;;;;5264943;28;20021;-77
2023/08/05 03:58:57;;;;;;;14.60;9.48;;;24.40;99.90;;;;;;5264333;28;20020;-79
2023/08/05 04:01:29;;;;;;;21.05;9.88;;;24.40;99.90;;;;;;5264506;28;20526;-74
2023/08/05 04:04:00;;;;;;;16.73;9.60;;;24.50;99.90;;;;;;5263513;28;20536;-79
2023/08/05 04:06:30;;;;;;;14.10;9.25;;;24.50;99.90;;;;;;5263448;28;20028;-78
2023/08/05 04:09:01;;;;;;;16.95;10.15;;;24.50;99.90;;;;;;5263487;28;20078;-78
2023/08/05 04:11:32;;;;;;;14.20;9.70;;;24.50;99.90;;;;;;5263113;28;20537;-76
2023/08/05 04:14:04;;;;;;;17.92;9.77;;;24.50;99.90;;;;;;5263110;28;20048;-78
2023/08/05 04:16:35;;;;;;;14.82;9.85;;;24.50;99.90;;;;;;5263237;28;20017;-76
2023/08/05 04:19:06;;;;;;;17.13;9.27;;;24.70;99.90;;;;;;5264066;28;20031;-74
2023/08/05 04:21:45;;;;;;;15.32;10.18;;;24.60;99.90;;;;;;5264394;28;20025;-74
2023/08/05 04:24:18;;;;;;;16.58;9.82;;;24.70;99.90;;;;;;5264695;28;20020;-78
2023/08/05 04:26:53;;;;;;;18.80;10.50;;;24.60;99.90;;;;;;5264336;28;20050;-79
2023/08/05 04:29:24;;;;;;;15.25;10.05;;;24.70;99.90;;;;;;5264328;28;20425;-79
2023/08/05 04:31:55;;;;;;;13.52;10.27;;;24.90;99.90;;;;;;5264214;28;20111;-74
2023/08/05 04:34:26;;;;;;;14.60;10.60;;;25.00;99.90;;;;;;5245825;28;20542;-79
2023/08/05 04:36:56;;;;;;;15.00;10.68;;;24.90;99.90;;;;;;5264114;28;20383;-75
2023/08/05 04:39:27;;;;;;;14.10;10.15;;;25.00;99.90;;;;;;5252680;28;20075;-74
2023/08/05 04:41:58;;;;;;;19.00;11.13;;;25.10;99.90;;;;;;5261357;28;20055;-75
2023/08/05 04:44:29;;;;;;;15.73;10.48;;;25.20;99.90;;;;;;5251066;28;20052;-79
2023/08/05 04:47:00;;;;;;;14.32;10.52;;;25.40;99.90;;;;;;5249895;28;20024;-79
2023/08/05 04:49:30;;;;;;;16.20;11.15;;;25.40;99.90;;;;;;5244319;28;20020;-76
2023/08/05 04:52:06;;;;;;;18.08;10.32;;;25.40;99.90;;;;;;5236511;28;20586;-79
2023/08/05 04:54:41;;;;;;;17.58;9.88;;;25.50;99.90;;;;;;5237229;28;20150;-79
2023/08/05 04:57:12;;;;;;;15.60;9.63;;;25.50;99.90;;;;;;5227474;28;20470;-79
2023/08/05 04:59:43;;;;;;;13.35;9.10;;;25.70;99.90;;;;;;5227163;28;20082;-79
2023/08/05 05:02:15;;;;;;;18.05;8.60;;;25.80;99.90;;;;;;5226661;28;21809;-76
2023/08/05 05:04:46;;;;;;;17.13;10.15;;;25.90;99.90;;;;;;5227434;28;20546;-73
2023/08/05 05:07:16;;;;;;;16.98;9.20;;;25.90;99.90;;;;;;5227476;28;20036;-74
2023/08/05 05:09:47;;;;;;;12.95;8.85;;;26.00;99.90;;;;;;5227973;28;20025;-73
2023/08/05 05:12:18;;;;;;;14.63;8.85;;;26.00;99.90;;;;;;5228575;28;20053;-75
2023/08/05 05:14:49;;;;;;;13.55;8.98;;;26.10;99.90;;;;;;5210695;28;20036;-73
2023/08/05 05:17:21;;;;;;;16.15;9.43;;;26.10;99.90;;;;;;5228689;28;20033;-78
2023/08/05 05:19:52;;;;;;;17.90;9.32;;;26.00;99.90;;;;;;5210789;28;20039;-77
2023/08/05 05:22:23;;;;;;;11.10;9.25;;;26.00;99.90;;;;;;5228440;28;20029;-75
2023/08/05 05:24:53;;;;;;;10.23;8.80;;;26.10;99.90;;;;;;5228670;28;20355;-78
2023/08/05 05:27:24;;;;;;;16.15;8.32;;;26.10;99.90;;;;;;5227653;28;20033;-78
2023/08/05 05:29:55;;;;;;;12.57;8.55;;;26.00;99.90;;;;;;5228123;28;20021;-73
2023/08/05 05:32:26;;;;;;;14.68;9.25;;;26.30;99.90;;;;;;5226969;28;20041;-73
2023/08/05 05:34:57;;;;;;;12.45;8.75;;;26.50;99.90;;;;;;5209132;28;20116;-73
2023/08/05 05:37:28;;;;;;;16.10;9.27;;;26.50;99.90;;;;;;5209077;28;20033;-76
2023/08/05 05:39:58;;;;;;;17.50;10.18;;;26.30;99.90;;;;;;5227039;28;20021;-78
2023/08/05 05:42:30;;;;;;;16.40;10.88;;;26.30;99.90;;;;;;5226630;28;20060;-78
2023/08/05 05:45:01;;;;;;;18.83;11.02;;;26.40;99.90;;;;;;5226957;28;20431;-73
2023/08/05 05:47:32;;;;;;;12.82;11.55;;;26.50;99.90;;;;;;5228197;28;20810;-78
2023/08/05 05:50:03;;;;;;;14.80;11.32;;;26.50;99.90;;;;;;5227806;28;20029;-78
2023/08/05 05:52:34;;;;;;;12.98;11.43;;;26.70;99.90;;;;;;5227383;28;20037;-78
2023/08/05 05:55:05;;;;;;;15.15;12.55;;;26.90;99.90;;;;;;5226987;28;20029;-79
2023/08/05 05:57:36;;;;;;;15.70;11.50;;;26.80;99.90;;;;;;5228025;28;20025;-74
2023/08/05 06:00:09;;;;;;;17.23;12.70;;;26.80;99.90;;;;;;5210188;28;20033;-79
2023/08/05 06:02:39;;;;;;;15.02;13.30;;;26.80;99.90;;;;;;5227779;28;20017;-79
2023/08/05 06:05:11;;;;;;;16.95;13.43;;;26.70;99.90;;;;;;5227309;28;20373;-76
2023/08/05 06:07:42;;;;;;;17.55;13.05;;;26.80;99.90;;;;;;5213152;28;20027;-81
2023/08/05 06:10:14;;;;;;;21.00;11.75;;;26.70;99.90;;;;;;5232358;28;20020;-79
2023/08/05 06:12:45;;;;;;;14.52;11.90;;;26.70;99.90;;;;;;5230517;28;20123;-80
2023/08/05 06:15:16;;;;;;;21.58;12.73;;;26.80;99.90;;;;;;5232894;28;20119;-77
2023/08/05 06:17:47;;;;;;;16.38;10.98;;;26.80;99.90;;;;;;5231778;28;20017;-81
2023/08/05 06:20:18;;;;;;;13.30;10.25;;;26.80;99.90;;;;;;5230463;28;20025;-77
2023/08/05 06:22:48;;;;;;;20.08;10.50;;;26.80;99.90;;;;;;5231217;28;20025;-71
2023/08/05 06:25:19;;;;;;;18.50;10.20;;;26.70;99.90;;;;;;5215043;28;20529;-76
2023/08/05 06:27:50;;;;;;;14.70;9.85;;;26.70;99.90;;;;;;5231014;28;20414;-77
2023/08/05 06:30:21;;;;;;;12.73;9.85;;;26.70;99.90;;;;;;5229279;28;20052;-72
2023/08/05 06:32:52;;;;;;;16.60;10.35;;;26.80;99.90;;;;;;5232577;28;20079;-74
2023/08/05 06:35:22;;;;;;;14.05;9.75;;;26.90;99.90;;;;;;5229702;28;20025;-75
2023/08/05 06:37:53;;;;;;;19.05;10.55;;;27.10;99.90;;;;;;5213776;28;20021;-80
2023/08/05 06:40:24;;;;;;;13.98;9.55;;;27.10;99.90;;;;;;5213349;28;20380;-72
2023/08/05 06:42:56;;;;;;;14.73;10.25;;;27.40;99.90;;;;;;5231156;28;20392;-72
2023/08/05 06:45:26;;;;;;;15.32;10.02;;;27.50;99.90;;;;;;5228859;28;20033;-71
2023/08/05 06:47:57;;;;;;;17.90;9.90;;;27.30;99.90;;;;;;5213139;28;20035;-72
2023/08/05 06:50:29;;;;;;;16.20;10.18;;;27.20;99.90;;;;;;5230126;28;20108;-79
2023/08/05 06:52:59;;;;;;;18.27;10.55;;;27.20;99.90;;;;;;5230835;28;20035;-71
2023/08/05 06:55:30;;;;;;;12.05;9.00;;;27.30;99.90;;;;;;5236202;28;20029;-78
2023/08/05 06:58:01;;;;;;;13.52;8.93;;;27.40;99.90;;;;;;5231095;28;20424;-73
2023/08/05 07:00:32;;;;;;;13.68;8.88;;;27.50;99.90;;;;;;5213224;28;20036;-74
2023/08/05 07:03:03;;;;;;;13.50;9.73;;;27.40;99.90;;;;;;5228102;28;20032;-77
2023/08/05 07:05:35;;;;;;;12.23;8.82;;;27.40;99.90;;;;;;5229193;28;20039;-76
2023/08/05 07:08:06;;;;;;;14.55;10.15;;;27.50;99.90;;;;;;5233595;28;20577;-73
2023/08/05 07:10:37;;;;;;;12.20;8.23;;;27.70;99.90;;;;;;5227595;28;20064;-77
2023/08/05 07:13:09;;;;;;;12.77;8.90;;;27.60;99.90;;;;;;5237016;28;20174;-76
2023/08/05 07:15:40;;;;;;;12.90;8.50;;;27.60;99.90;;;;;;5232057;28;20029;-73
2023/08/05 07:18:11;;;;;;;16.77;8.23;;;27.80;99.90;;;;;;5211671;28;20033;-73
2023/08/05 07:20:42;;;;;;;12.55;8.27;;;27.80;99.90;;;;;;5188056;28;20052;-75
2023/08/05 07:23:12;;;;;;;13.15;8.35;;;28.00;99.90;;;;;;5186583;28;20680;-75
2023/08/05 07:25:43;;;;;;;14.93;9.07;;;28.20;99.90;;;;;;5186357;28;20903;-78
2023/08/05 07:28:14;;;;;;;11.15;9.40;;;28.10;99.90;;;;;;5188759;28;20204;-75
2023/08/05 07:30:45;;;;;;;13.95;9.50;;;28.20;99.90;;;;;;5189650;28;20037;-76
2023/08/05 07:33:17;;;;;;;16.38;10.05;;;28.20;99.90;;;;;;5187514;28;20042;-80
2023/08/05 07:35:47;;;;;;;14.35;11.30;;;28.00;99.90;;;;;;5190416;28;20056;-74
2023/08/05 07:38:20;;;;;;;18.27;11.93;;;28.30;99.90;;;;;;5190742;28;20060;-81
2023/08/05 07:40:55;;;;;;;21.25;11.95;;;28.30;99.90;;;;;;5186318;28;20125;-81
2023/08/05 07:43:29;;;;;;;18.05;12.73;;;28.20;99.90;;;;;;5189253;28;20425;-80
2023/08/05 07:46:00;;;;;;;15.05;13.55;;;28.20;99.90;;;;;;5187778;28;20034;-79
2023/08/05 07:48:35;;;;;;;17.13;13.90;;;28.00;99.90;;;;;;5193659;28;20157;-77
2023/08/05 07:51:07;;;;;;;16.33;14.60;;;28.10;99.90;;;;;;5193391;28;20449;-83
2023/08/05 07:53:38;;;;;;;18.90;14.93;;;28.10;99.90;;;;;;5187127;28;20033;-73
2023/08/05 07:56:09;;;;;;;15.98;14.35;;;28.20;99.90;;;;;;5191641;28;20030;-81
2023/08/05 07:58:46;;;;;;;15.60;13.50;;;28.50;99.90;;;;;;5220511;28;20037;-84
2023/08/05 08:01:19;;;;;;;15.35;13.63;;;28.70;99.90;;;;;;5231747;28;20059;-80
2023/08/05 08:03:53;;;;;;;18.75;14.68;;;28.60;99.90;;;;;;5237017;28;20051;-83
2023/08/05 08:06:24;;;;;;;17.30;14.18;;;28.60;99.90;;;;;;5231923;28;20062;-80
2023/08/05 08:08:54;;;;;;;18.05;13.25;;;28.60;99.90;;;;;;5231953;28;20350;-80
2023/08/05 08:11:25;;;;;;;16.92;12.55;;;28.70;99.90;;;;;;5236969;28;20040;-82
2023/08/05 08:13:56;;;;;;;14.45;12.93;;;28.60;99.90;;;;;;5237607;28;20024;-78
2023/08/05 08:16:28;;;;;;;14.00;12.50;;;28.50;99.90;;;;;;5232581;28;20055;-77
2023/08/05 08:18:59;;;;;;;16.33;12.73;;;28.70;99.90;;;;;;5234033;28;20103;-72
2023/08/05 08:21:29;;;;;;;12.63;10.13;;;28.70;99.90;;;;;;5235478;28;21537;-71
2023/08/05 08:24:00;;;;;;;17.80;10.57;;;28.80;99.90;;;;;;5222232;28;20029;-79
2023/08/05 08:26:31;;;;;;;12.57;9.50;;;28.70;99.90;;;;;;5239211;28;20756;-77
2023/08/05 08:29:02;;;;;;;13.18;8.50;;;28.70;99.90;;;;;;5240276;28;20020;-76
2023/08/05 08:31:33;;;;;;;12.55;8.07;;;29.00;99.90;;;;;;5238880;28;20115;-75
2023/08/05 08:34:04;;;;;;;14.02;8.95;;;29.20;99.90;;;;;;5236584;28;20028;-76
2023/08/05 08:36:35;;;;;;;10.57;8.00;;;29.20;99.90;;;;;;5238174;28;20050;-79
2023/08/05 08:39:06;;;;;;;11.43;7.90;;;29.40;99.90;;;;;;5237017;28;20025;-71
2023/08/05 08:41:48;;;;;;;10.52;7.68;;;29.50;99.90;;;;;;5231873;28;20074;-78
2023/08/05 08:44:20;;;;;;;11.55;7.80;;;29.40;99.90;;;;;;5233765;28;20033;-73
2023/08/05 08:46:52;;;;;;;17.17;8.23;;;29.40;99.90;;;;;;5233787;28;20013;-71
2023/08/05 08:49:23;;;;;;;11.30;6.55;;;29.50;99.90;;;;;;5238523;28;20035;-77
2023/08/05 08:51:54;;;;;;;10.52;6.68;;;29.70;99.90;;;;;;5233638;28;20032;-72
2023/08/05 08:54:27;;;;;;;10.20;7.40;;;29.40;99.90;;;;;;5234531;28;20029;-72
2023/08/05 08:56:58;;;;;;;13.55;7.75;;;29.50;99.90;;;;;;5233386;28;20423;-74
2023/08/05 08:59:29;;;;;;;12.07;7.85;;;29.60;99.90;;;;;;5231500;28;20057;-79
2023/08/05 09:02:01;;;;;;;10.82;8.13;;;29.60;99.90;;;;;;5233840;28;20040;-74
2023/08/05 09:04:35;;;;;;;13.32;8.25;;;29.80;99.90;;;;;;5234038;28;20033;-77
2023/08/05 09:07:07;;;;;;;13.60;8.05;;;29.90;99.90;;;;;;5232890;28;20056;-77
2023/08/05 09:09:37;;;;;;;12.50;7.78;;;29.90;99.90;;;;;;5233248;28;20024;-79
2023/08/05 09:12:09;;;;;;;13.88;8.60;;;29.70;99.90;;;;;;5233181;28;20056;-77
2023/08/05 09:14:40;;;;;;;14.57;8.93;;;29.90;99.90;;;;;;5221309;28;20033;-76
2023/08/05 09:17:14;;;;;;;10.93;8.05;;;29.90;99.90;;;;;;5236576;28;20365;-73
2023/08/05 09:19:45;;;;;;;17.08;7.90;;;29.90;99.90;;;;;;5233669;28;20083;-72
2023/08/05 09:22:17;;;;;;;12.05;8.50;;;29.90;99.90;;;;;;5208455;28;20040;-78
2023/08/05 09:24:48;;;;;;;11.73;7.82;;;29.90;99.90;;;;;;5239287;28;20055;-80
2023/08/05 09:27:18;;;;;;;12.65;8.73;;;29.80;99.90;;;;;;5233971;28;20087;-79
2023/08/05 09:29:49;;;;;;;14.10;9.45;;;30.00;99.90;;;;;;5235850;28;20021;-76
2023/08/05 09:32:20;;;;;;;14.02;8.88;;;30.20;99.90;;;;;;5236361;28;20032;-71
2023/08/05 09:34:54;;;;;;;14.15;8.80;;;30.20;99.90;;;;;;5238895;28;20032;-73
2023/08/05 09:37:26;;;;;;;10.73;8.38;;;30.00;99.90;;;;;;5236441;28;20349;-80
2023/08/05 09:39:57;;;;;;;10.18;8.50;;;30.00;99.90;;;;;;5234020;28;20024;-74
2023/08/05 09:42:28;;;;;;;14.73;8.35;;;30.20;99.90;;;;;;5234505;28;20415;-75
2023/08/05 09:45:02;;;;;;;12.35;8.20;;;30.10;99.90;;;;;;5217460;28;20035;-79
2023/08/05 09:47:33;;;;;;;17.20;7.60;;;30.40;99.90;;;;;;5237758;28;20420;-72
2023/08/05 09:50:08;;;;;;;18.35;8.82;;;30.30;99.90;;;;;;5229385;28;20033;-80
2023/08/05 09:52:42;;;;;;;11.70;7.38;;;30.10;99.90;;;;;;5233756;28;20105;-72
2023/08/05 09:55:16;;;;;;;17.60;8.25;;;29.90;99.90;;;;;;5220746;28;20028;-72
2023/08/05 09:57:48;;;;;;;19.08;8.52;;;30.40;99.90;;;;;;5215309;28;20020;-74
2023/08/05 10:00:19;;;;;;;14.90;6.47;;;30.60;99.90;;;;;;5219771;28;20407;-81
2023/08/05 10:02:51;;;;;;;14.57;7.30;;;30.50;99.90;;;;;;5232669;28;20032;-72
2023/08/05 10:05:24;;;;;;;12.48;7.35;;;30.30;99.90;;;;;;5235791;28;20056;-78
2023/08/05 10:07:58;;;;;;;11.32;7.82;;;29.90;99.90;;;;;;5233485;28;20017;-77
2023/08/05 10:10:31;;;;;;;10.90;7.43;;;30.20;99.90;;;;;;5233972;28;20032;-72
2023/08/05 10:13:08;;;;;;;9.88;7.07;;;30.20;99.90;;;;;;5230170;28;20095;-76
2023/08/05 10:15:41;;;;;;;19.45;7.50;;;30.30;99.90;;;;;;5215646;28;20033;-75
2023/08/05 10:18:15;;;;;;;13.43;7.25;;;30.20;99.90;;;;;;5230078;28;20027;-76
2023/08/05 10:20:51;;;;;;;15.43;6.95;;;30.30;99.90;;;;;;5231006;28;20027;-77
2023/08/05 10:23:25;;;;;;;10.80;6.57;;;30.30;99.90;;;;;;5232199;28;20135;-72
2023/08/05 10:26:01;;;;;;;10.15;6.22;;;30.30;99.90;;;;;;5229991;28;20365;-72
2023/08/05 10:28:34;;;;;;;9.77;7.03;;;30.10;99.90;;;;;;5235064;28;20020;-73
2023/08/05 10:31:22;;;;;;;13.02;7.45;;;30.20;99.90;;;;;;5232938;28;20036;-73
2023/08/05 10:34:16;;;;;;;13.00;7.32;;;30.20;99.90;;;;;;5233477;28;20388;-72
2023/08/05 10:36:48;;;;;;;15.18;6.90;;;30.20;99.90;;;;;;5236621;28;20032;-75
2023/08/05 10:39:39;;;;;;;10.35;6.78;;;30.50;99.90;;;;;;5232399;28;20035;-75
2023/08/05 10:42:28;;;;;;;12.88;7.72;;;30.50;99.90;;;;;;5230991;28;20049;-75
2023/08/05 10:45:00;;;;;;;9.48;6.45;;;30.30;99.90;;;;;;5215715;28;20035;-72
2023/08/05 10:47:31;;;;;;;12.95;6.82;;;30.40;99.90;;;;;;5215840;28;20017;-73
2023/08/05 10:50:03;;;;;;;14.65;7.03;;;30.40;99.90;;;;;;5213759;28;20025;-72
2023/08/05 10:52:36;;;;;;;14.43;7.55;;;30.00;99.90;;;;;;5243331;28;20506;-76
2023/08/05 10:55:13;;;;;;;12.57;7.35;;;30.40;99.90;;;;;;5238200;28;20021;-75
2023/08/05 10:57:45;;;;;;;13.98;6.60;;;30.60;99.90;;;;;;5244906;28;20036;-74
2023/08/05 11:00:20;;;;;;;14.68;5.85;;;30.60;99.90;;;;;;5231834;28;20021;-74
2023/08/05 11:03:27;;;;;;;11.05;6.25;;;30.80;99.90;;;;;;5224851;28;20021;-73
2023/08/05 11:06:03;;;;;;;10.68;6.60;;;30.70;99.90;;;;;;5226951;28;20112;-73
2023/08/05 11:08:35;;;;;;;12.52;6.68;;;30.80;99.90;;;;;;5244497;28;20023;-72
2023/08/05 11:11:08;;;;;;;17.13;6.95;;;30.80;99.90;;;;;;5233493;28;20033;-74
2023/08/05 11:13:41;;;;;;;16.75;6.57;;;30.30;99.90;;;;;;5246089;28;20034;-74
2023/08/05 11:16:13;;;;;;;13.48;6.43;;;30.70;99.90;;;;;;5246930;28;20021;-71
2023/08/05 11:18:46;;;;;;;12.57;5.93;;;30.50;99.90;;;;;;5237466;28;20428;-71
2023/08/05 11:21:17;;;;;;;18.00;7.40;;;30.60;99.90;;;;;;5236997;28;20495;-72
2023/08/05 11:23:49;;;;;;;9.02;5.90;;;30.70;99.90;;;;;;5228317;28;20480;-74
2023/08/05 11:26:22;;;;;;;16.23;6.65;;;30.60;99.90;;;;;;5231430;28;20033;-76
2023/08/05 11:28:53;;;;;;;12.60;6.20;;;30.50;99.90;;;;;;5226428;28;20420;-72
2023/08/05 11:31:26;;;;;;;12.27;6.00;;;30.60;99.90;;;;;;5205006;28;20025;-75
2023/08/05 11:33:57;;;;;;;16.90;6.50;;;30.70;99.90;;;;;;5235026;28;20036;-76
2023/08/05 11:36:29;;;;;;;12.13;6.88;;;30.70;99.90;;;;;;5246834;28;20025;-73
2023/08/05 11:39:00;;;;;;;15.35;6.13;;;30.90;99.90;;;;;;5246646;28;20025;-74
2023/08/05 11:41:31;;;;;;;16.27;6.30;;;30.90;99.90;;;;;;5246155;28;20064;-72
2023/08/05 11:44:03;;;;;;;11.77;6.40;;;31.00;99.90;;;;;;5235156;28;20089;-76
2023/08/05 11:46:34;;;;;;;21.20;5.82;;;31.20;99.90;;;;;;5230986;28;20029;-72
2023/08/05 11:49:09;;;;;;;11.73;5.53;;;31.30;99.90;;;;;;5226956;28;20368;-73
2023/08/05 11:51:50;;;;;;;13.75;6.82;;;31.30;99.90;;;;;;5224142;28;20128;-72
2023/08/05 11:54:35;;;;;;;13.40;5.35;;;30.90;99.90;;;;;;5227341;28;20017;-73
2023/08/05 11:57:19;;;;;;;11.40;5.68;;;31.10;99.90;;;;;;5228721;28;20488;-72
2023/08/05 11:59:59;;;;;;;11.18;5.45;;;31.30;99.90;;;;;;5210565;28;20037;-73
2023/08/05 12:02:34;;;;;;;13.85;5.50;;;31.00;99.90;;;;;;5228531;28;20024;-72
2023/08/05 12:05:05;;;;;;;13.38;5.55;;;31.20;99.90;;;;;;5229709;28;20361;-72
2023/08/05 12:07:41;;;;;;;12.00;5.57;;;31.20;99.90;;;;;;5229434;28;20075;-72
2023/08/05 12:10:14;;;;;;;8.82;5.10;;;31.10;99.90;;;;;;5230099;28;20017;-73
2023/08/05 12:12:46;;;;;;;10.38;5.32;;;31.20;99.90;;;;;;5234336;28;20041;-73
2023/08/05 12:15:27;;;;;;;13.68;5.53;;;31.10;99.90;;;;;;5235955;28;20029;-73
2023/08/05 12:18:00;;;;;;;14.75;5.32;;;31.00;99.90;;;;;;5225135;28;20031;-73
2023/08/05 12:20:32;;;;;;;11.00;5.10;;;31.30;99.90;;;;;;5220230;28;20017;-75
2023/08/05 12:23:05;;;;;;;10.25;5.20;;;31.10;99.90;;;;;;5230662;28;20036;-75
2023/08/05 12:25:36;;;;;;;11.65;5.60;;;31.00;99.90;;;;;;5230820;28;20048;-73
2023/08/05 12:28:07;;;;;;;12.55;5.40;;;31.00;99.90;;;;;;5248916;28;20576;-73
2023/08/05 12:30:37;;;;;;;11.35;5.35;;;31.00;99.90;;;;;;5215773;28;20032;-72
2023/08/05 12:33:08;;;;;;;14.10;5.45;;;31.10;99.90;;;;;;5229274;28;20118;-72
2023/08/05 12:35:40;;;;;;;9.63;5.10;;;31.10;99.90;;;;;;5233104;28;20028;-72
2023/08/05 12:38:11;;;;;;;11.73;5.57;;;31.10;99.90;;;;;;5249811;28;20035;-73
2023/08/05 12:40:42;;;;;;;11.70;5.25;;;30.90;99.90;;;;;;5248291;28;20024;-72
2023/08/05 12:43:12;;;;;;;14.18;5.57;;;31.30;99.90;;;;;;5229121;28;20569;-75
2023/08/05 12:45:43;;;;;;;11.45;5.40;;;31.10;99.90;;;;;;5211114;28;20116;-73
2023/08/05 12:48:14;;;;;;;16.48;5.35;;;31.00;99.90;;;;;;5240437;28;20483;-72
2023/08/05 12:50:50;;;;;;;11.60;5.32;;;31.00;99.90;;;;;;5231880;28;20025;-73
2023/08/05 12:53:20;;;;;;;11.77;5.47;;;31.00;99.90;;;;;;5241702;28;20051;-72
2023/08/05 12:55:51;;;;;;;18.38;5.60;;;31.00;99.90;;;;;;5222246;28;20115;-75
2023/08/05 12:58:22;;;;;;;12.52;5.25;;;31.10;99.90;;;;;;5248268;28;20012;-75
2023/08/05 13:00:53;;;;;;;12.27;5.35;;;31.20;99.90;;;;;;5249260;28;20055;-73
2023/08/05 13:03:24;;;;;;;12.93;5.65;;;31.00;99.90;;;;;;5249174;28;20076;-76
2023/08/05 13:05:55;;;;;;;14.00;5.30;;;30.90;99.90;;;;;;5247595;28;20029;-73
2023/08/05 13:08:25;;;;;;;12.05;5.10;;;30.90;99.90;;;;;;5236804;28;20025;-77
2023/08/05 13:10:56;;;;;;;8.85;5.00;;;31.00;99.90;;;;;;5209927;28;20411;-76